Time;durP1;ratioP1;P1;durP2;ratioP2;P2;SDS_P1;SDS_P2;PMS_P1;PMS_P2;Temp;Humidity;BMP_temperature;BMP_pressure;BME280_temperature;BME280_humidity;BME280_pressure;Samples;Min_cycle;Max_cycle;Signal;HPM_P1;HPM_P2
2023/08/10 00:06:39;;;;;;;1999.90;999.90;;;;;;;;;;6722391;88;20712;-78
2023/08/10 00:16:40;;;;;;;1999.90;999.90;;;;;;;;;;6722208;88;20296;-78
2023/08/10 00:26:41;;;;;;;1999.90;999.90;;;;;;;;;;6723366;88;20231;-78
2023/08/10 00:36:42;;;;;;;1999.90;999.90;;;;;;;;;;6714053;88;20193;-77
2023/08/10 00:46:44;;;;;;;1999.90;999.90;;;;;;;;;;6722526;88;20602;-78
2023/08/10 00:56:45;;;;;;;1999.90;999.90;;;;;;;;;;6722715;88;20215;-77
2023/08/10 01:07:04;;;;;;;1999.90;999.90;;;;;;;;;;6724785;88;20672;-77
2023/08/10 01:17:08;;;;;;;1999.90;999.90;;;;;;;;;;6724477;88;20208;-78
2023/08/10 01:27:10;;;;;;;1999.90;999.90;;;;;;;;;;6723496;88;20199;-78
2023/08/10 01:37:11;;;;;;;1999.90;999.90;;;;;;;;;;6727028;88;20265;-78
2023/08/10 01:47:22;;;;;;;1999.90;999.90;;;;;;;;;;6725626;88;20212;-77
2023/08/10 01:57:23;;;;;;;1999.90;999.90;;;;;;;;;;6723956;88;20228;-78
2023/08/10 02:07:24;;;;;;;1999.90;999.90;;;;;;;;;;6726685;88;20219;-78
2023/08/10 02:17:35;;;;;;;1999.90;999.90;;;;;;;;;;6715066;88;20695;-78
2023/08/10 02:27:36;;;;;;;1999.90;999.90;;;;;;;;;;6707244;88;20225;-78
2023/08/10 02:37:37;;;;;;;1999.90;999.90;;;;;;;;;;6713326;88;20200;-78
2023/08/10 02:47:39;;;;;;;1999.90;999.90;;;;;;;;;;6717658;88;20668;-78
2023/08/10 02:57:40;;;;;;;1999.90;999.90;;;;;;;;;;6723914;88;20198;-77
2023/08/10 03:07:41;;;;;;;1999.90;999.90;;;;;;;;;;6726457;88;20222;-78
2023/08/10 03:17:42;;;;;;;1999.90;999.90;;;;;;;;;;6733968;88;20782;-78
2023/08/10 03:27:43;;;;;;;1999.90;999.90;;;;;;;;;;6729887;88;20182;-78
2023/08/10 03:37:44;;;;;;;1999.90;999.90;;;;;;;;;;6704364;88;20241;-78
2023/08/10 03:47:45;;;;;;;1999.90;999.90;;;;;;;;;;6719858;88;20201;-77
2023/08/10 03:57:46;;;;;;;1999.90;999.90;;;;;;;;;;6719888;88;20206;-78
2023/08/10 04:07:47;;;;;;;1999.90;999.90;;;;;;;;;;6717037;88;20189;-76
2023/08/10 04:17:48;;;;;;;1999.90;999.90;;;;;;;;;;6723482;88;20705;-77
2023/08/10 04:27:49;;;;;;;1999.90;999.90;;;;;;;;;;6703966;88;20334;-77
2023/08/10 04:37:53;;;;;;;1999.90;999.90;;;;;;;;;;6698815;88;20223;-78
2023/08/10 04:47:55;;;;;;;1999.90;999.90;;;;;;;;;;6691681;88;20226;-78
2023/08/10 04:57:56;;;;;;;1999.90;999.90;;;;;;;;;;6710637;88;20197;-78
2023/08/10 05:07:57;;;;;;;1999.90;999.90;;;;;;;;;;6716374;88;20181;-79
2023/08/10 05:17:57;;;;;;;1999.90;999.90;;;;;;;;;;6728902;88;20223;-79
2023/08/10 05:27:59;;;;;;;1999.90;999.90;;;;;;;;;;6740076;88;20236;-79
2023/08/10 05:38:00;;;;;;;1999.90;999.90;;;;;;;;;;6746234;88;20351;-79
2023/08/10 05:48:01;;;;;;;1999.90;999.90;;;;;;;;;;6745447;88;20294;-79
2023/08/10 05:58:02;;;;;;;1999.90;999.90;;;;;;;;;;6734103;88;20221;-81
2023/08/10 06:08:03;;;;;;;1999.90;999.90;;;;;;;;;;6731438;88;20218;-81
2023/08/10 06:18:04;;;;;;;1999.90;999.90;;;;;;;;;;6732367;88;20194;-80
2023/08/10 06:28:06;;;;;;;1999.90;999.90;;;;;;;;;;6734759;88;20181;-79
2023/08/10 06:38:07;;;;;;;1999.90;999.90;;;;;;;;;;6728081;88;20197;-79
2023/08/10 06:48:09;;;;;;;1999.90;999.90;;;;;;;;;;6727969;88;20838;-80
2023/08/10 06:58:12;;;;;;;1999.90;999.90;;;;;;;;;;6725177;88;20186;-79
2023/08/10 07:08:13;;;;;;;1999.90;999.90;;;;;;;;;;6728787;88;20218;-81
2023/08/10 07:18:15;;;;;;;1999.90;999.90;;;;;;;;;;6735764;88;20222;-80
2023/08/10 07:28:16;;;;;;;1999.90;999.90;;;;;;;;;;6737058;88;20215;-80
2023/08/10 07:38:17;;;;;;;1999.90;999.90;;;;;;;;;;6733067;88;20219;-80
2023/08/10 07:48:18;;;;;;;1999.90;999.90;;;;;;;;;;6729097;88;20209;-79
2023/08/10 07:58:19;;;;;;;1999.90;999.90;;;;;;;;;;6732952;88;20225;-79
2023/08/10 08:08:20;;;;;;;1999.90;999.90;;;;;;;;;;6729772;88;20205;-81
2023/08/10 08:18:41;;;;;;;1999.90;999.90;;;;;;;;;;6728951;88;20272;-80
2023/08/10 08:28:42;;;;;;;1999.90;999.90;;;;;;;;;;6726150;88;20647;-79
2023/08/10 08:38:43;;;;;;;1999.90;999.90;;;;;;;;;;6721540;88;20200;-79
2023/08/10 08:48:45;;;;;;;1999.90;999.90;;;;;;;;;;6726997;88;20207;-79
2023/08/10 08:58:46;;;;;;;1999.90;999.90;;;;;;;;;;6727150;88;20188;-80
2023/08/10 09:08:47;;;;;;;1999.90;999.90;;;;;;;;;;6724476;88;20205;-78
2023/08/10 09:29:30;;;;;;;1999.90;999.90;;;;;;;;;;6740845;88;20710;-84
2023/08/10 09:39:32;;;;;;;1999.90;999.90;;;;;;;;;;6763923;88;20818;-83
2023/08/10 09:49:33;;;;;;;1999.90;999.90;;;;;;;;;;6764130;88;20193;-83
2023/08/10 09:59:34;;;;;;;1999.90;999.90;;;;;;;;;;6764764;88;20207;-82
2023/08/10 10:09:37;;;;;;;1999.90;999.90;;;;;;;;;;6765153;87;20767;-82
2023/08/10 10:19:42;;;;;;;1999.90;999.90;;;;;;;;;;6765424;87;20228;-81
2023/08/10 10:29:52;;;;;;;1999.90;999.90;;;;;;;;;;6755848;88;20225;-80
2023/08/10 10:39:53;;;;;;;1999.90;999.90;;;;;;;;;;6755653;88;21056;-81
2023/08/10 10:49:54;;;;;;;1999.90;999.90;;;;;;;;;;6756030;88;20763;-81
2023/08/10 10:59:56;;;;;;;1999.90;999.90;;;;;;;;;;6742219;88;20240;-81
2023/08/10 11:10:03;;;;;;;1999.90;999.90;;;;;;;;;;6738632;88;20181;-79
2023/08/10 11:20:15;;;;;;;1999.90;999.90;;;;;;;;;;6735965;88;20170;-80
2023/08/10 11:30:17;;;;;;;1999.90;999.90;;;;;;;;;;6740715;88;20251;-79
2023/08/10 11:40:20;;;;;;;1999.90;999.90;;;;;;;;;;6744249;88;20222;-79
2023/08/10 11:50:21;;;;;;;1999.90;999.90;;;;;;;;;;6743112;88;20257;-79
2023/08/10 12:00:41;;;;;;;1999.90;999.90;;;;;;;;;;6740921;88;20197;-79
2023/08/10 12:10:45;;;;;;;1999.90;999.90;;;;;;;;;;6754485;88;20208;-81
2023/08/10 12:20:47;;;;;;;1999.90;999.90;;;;;;;;;;6757412;88;20567;-80
2023/08/10 12:30:49;;;;;;;1999.90;999.90;;;;;;;;;;6748093;88;20702;-82
2023/08/10 12:40:50;;;;;;;1999.90;999.90;;;;;;;;;;6744216;88;20253;-80
2023/08/10 12:50:51;;;;;;;1999.90;999.90;;;;;;;;;;6752087;88;20251;-80
2023/08/10 13:00:52;;;;;;;1999.90;999.90;;;;;;;;;;6750906;88;20279;-80
2023/08/10 13:10:53;;;;;;;1999.90;999.90;;;;;;;;;;6740227;88;20277;-79
2023/08/10 13:20:54;;;;;;;1999.90;999.90;;;;;;;;;;6756877;88;20176;-81
2023/08/10 13:30:55;;;;;;;1999.90;999.90;;;;;;;;;;6744461;88;20265;-79
2023/08/10 13:40:56;;;;;;;1999.90;999.90;;;;;;;;;;6755320;88;20644;-79
2023/08/10 13:50:57;;;;;;;1999.90;999.90;;;;;;;;;;6746769;88;20201;-79
2023/08/10 14:00:58;;;;;;;1999.90;999.90;;;;;;;;;;6736625;88;20233;-80
2023/08/10 14:10:59;;;;;;;1999.90;999.90;;;;;;;;;;6742467;88;20227;-81
2023/08/10 14:21:00;;;;;;;1999.90;999.90;;;;;;;;;;6738264;88;20985;-81
2023/08/10 14:31:01;;;;;;;1999.90;999.90;;;;;;;;;;6751781;88;20824;-80
2023/08/10 14:41:02;;;;;;;1999.90;999.90;;;;;;;;;;6750602;88;20822;-82
2023/08/10 14:51:04;;;;;;;1999.90;999.90;;;;;;;;;;6767279;88;20196;-82
2023/08/10 15:01:05;;;;;;;1999.90;999.90;;;;;;;;;;6765764;88;20188;-81
2023/08/10 15:11:06;;;;;;;1999.90;999.90;;;;;;;;;;6742171;88;20607;-78
2023/08/10 15:31:49;;;;;;;1999.90;999.90;;;;;;;;;;6628271;88;20200;-78
2023/08/10 15:41:51;;;;;;;1999.90;999.90;;;;;;;;;;6606042;88;20214;-79
2023/08/10 15:51:52;;;;;;;1999.90;999.90;;;;;;;;;;6623187;88;20227;-81
2023/08/10 16:01:53;;;;;;;1999.90;999.90;;;;;;;;;;6684431;88;20194;-77
2023/08/10 16:11:54;;;;;;;1999.90;999.90;;;;;;;;;;6687234;88;20612;-77
2023/08/10 16:21:55;;;;;;;1999.90;999.90;;;;;;;;;;6680238;88;20202;-76
2023/08/10 16:31:57;;;;;;;1999.90;999.90;;;;;;;;;;6678659;88;20197;-78
2023/08/10 16:41:58;;;;;;;1999.90;999.90;;;;;;;;;;6687600;88;20191;-78
2023/08/10 16:51:59;;;;;;;1999.90;999.90;;;;;;;;;;6700520;88;20278;-79
2023/08/10 17:02:00;;;;;;;1999.90;999.90;;;;;;;;;;6645796;89;20247;-80
2023/08/10 17:12:01;;;;;;;1999.90;999.90;;;;;;;;;;6676671;89;20199;-79
2023/08/10 17:22:04;;;;;;;1999.90;999.90;;;;;;;;;;6687192;89;20203;-80
2023/08/10 17:32:06;;;;;;;1999.90;999.90;;;;;;;;;;6684236;88;20228;-80
2023/08/10 17:42:07;;;;;;;1999.90;999.90;;;;;;;;;;6679141;88;20240;-79
2023/08/10 17:52:09;;;;;;;1999.90;999.90;;;;;;;;;;6680840;88;20241;-79
2023/08/10 18:02:10;;;;;;;1999.90;999.90;;;;;;;;;;6672022;88;20184;-78
2023/08/10 18:12:10;;;;;;;1999.90;999.90;;;;;;;;;;6677723;88;20264;-78
2023/08/10 18:22:11;;;;;;;1999.90;999.90;;;;;;;;;;6708352;88;20195;-78
2023/08/10 18:32:12;;;;;;;1999.90;999.90;;;;;;;;;;6679693;88;20299;-79
2023/08/10 18:42:13;;;;;;;1999.90;999.90;;;;;;;;;;6688337;88;20195;-79
2023/08/10 18:52:14;;;;;;;1999.90;999.90;;;;;;;;;;6680827;88;20196;-78
2023/08/10 19:02:15;;;;;;;1999.90;999.90;;;;;;;;;;6685454;88;20662;-78
2023/08/10 19:12:16;;;;;;;1999.90;999.90;;;;;;;;;;6683071;88;20323;-78
2023/08/10 19:22:17;;;;;;;1999.90;999.90;;;;;;;;;;6685532;88;20705;-78
2023/08/10 19:32:18;;;;;;;1999.90;999.90;;;;;;;;;;6692221;88;20196;-79
2023/08/10 19:42:20;;;;;;;1999.90;999.90;;;;;;;;;;6685719;88;20334;-79
2023/08/10 19:52:21;;;;;;;1999.90;999.90;;;;;;;;;;6686784;88;20242;-78
2023/08/10 20:02:22;;;;;;;1999.90;999.90;;;;;;;;;;6694298;88;20286;-78
2023/08/10 20:12:23;;;;;;;1999.90;999.90;;;;;;;;;;6694073;88;20310;-78
2023/08/10 20:22:25;;;;;;;1999.90;999.90;;;;;;;;;;6685021;88;20194;-79
2023/08/10 20:32:26;;;;;;;1999.90;999.90;;;;;;;;;;6690807;88;20224;-79
2023/08/10 20:42:27;;;;;;;1999.90;999.90;;;;;;;;;;6690898;88;20721;-79
2023/08/10 20:52:28;;;;;;;1999.90;999.90;;;;;;;;;;6687074;88;20186;-79
2023/08/10 21:02:29;;;;;;;1999.90;999.90;;;;;;;;;;6686155;88;20183;-79
2023/08/10 21:12:30;;;;;;;1999.90;999.90;;;;;;;;;;6693233;88;20530;-78
2023/08/10 21:22:31;;;;;;;1999.90;999.90;;;;;;;;;;6693454;88;20357;-79
2023/08/10 21:32:32;;;;;;;1999.90;999.90;;;;;;;;;;6697499;88;20208;-78
2023/08/10 21:42:33;;;;;;;1999.90;999.90;;;;;;;;;;6674599;88;20198;-78
2023/08/10 21:52:34;;;;;;;1999.90;999.90;;;;;;;;;;6694539;88;20179;-78
2023/08/10 22:02:35;;;;;;;1999.90;999.90;;;;;;;;;;6691756;88;20208;-78
2023/08/10 22:12:36;;;;;;;1999.90;999.90;;;;;;;;;;6691758;88;20182;-78
2023/08/10 22:22:42;;;;;;;1999.90;999.90;;;;;;;;;;6694652;88;20204;-77
2023/08/10 22:32:43;;;;;;;1999.90;999.90;;;;;;;;;;6691380;88;20175;-78
2023/08/10 22:42:44;;;;;;;1999.90;999.90;;;;;;;;;;6643246;88;20196;-79
2023/08/10 22:52:45;;;;;;;1999.90;999.90;;;;;;;;;;6690197;88;20655;-77
2023/08/10 23:02:47;;;;;;;1999.90;999.90;;;;;;;;;;6691978;88;20206;-77
2023/08/10 23:12:48;;;;;;;1999.90;999.90;;;;;;;;;;6678884;88;20716;-77
2023/08/10 23:22:49;;;;;;;1999.90;999.90;;;;;;;;;;6673818;88;20218;-78
2023/08/10 23:32:50;;;;;;;1999.90;999.90;;;;;;;;;;6683263;88;20232;-78
2023/08/10 23:42:52;;;;;;;1999.90;999.90;;;;;;;;;;6685812;88;20264;-77
2023/08/10 23:52:54;;;;;;;1999.90;999.90;;;;;;;;;;6690444;88;20750;-77
